.
WxDataArchive / Data Records for 2014-09-07
2014-09-06 September 2014 2014-09-08

Data Records for Sunday, 07 September 2014

Time	Temp	Chill	HIndex	Humid	Dewpt	 Wind 	HiWind	WindDir	Rain 	Barom
-----	----	-----	------	-----	-----	------	------	-------	-----	-----
00:00	59.6	59.6	59.6	81	53.8	0	0	---	0.00	30.140 
00:05	59.5	59.5	59.5	81	53.7	0	1	315	0.00	30.140 
00:10	59.5	59.5	59.5	81	53.7	0	1	315	0.00	30.140 
00:15	59.3	59.3	59.3	81	53.5	0	0	---	0.00	30.139 
00:20	59.2	59.2	59.2	81	53.4	0	1	315	0.00	30.139 
00:25	59.2	59.2	59.2	82	53.7	0	1	315	0.00	30.139 
00:30	59.0	59.0	59.0	82	53.5	0	0	---	0.00	30.139 
00:35	58.9	58.9	58.9	82	53.4	0	0	---	0.00	30.139 
00:40	58.7	58.7	58.7	82	53.2	0	0	---	0.00	30.139 
00:45	58.6	58.6	58.6	82	53.1	0	0	---	0.00	30.138 
00:50	58.4	58.4	58.4	83	53.3	0	0	---	0.00	30.138 
00:55	58.3	58.3	58.3	83	53.2	0	0	---	0.00	30.138 
01:00	58.3	58.3	58.3	83	53.2	0	1	315	0.00	30.138 
01:05	58.1	58.1	58.1	83	53.0	0	0	---	0.00	30.138 
01:10	58.0	58.0	58.0	83	52.9	0	0	---	0.00	30.138 
01:15	57.8	57.8	57.8	84	53.0	0	0	---	0.00	30.136 
01:20	57.6	57.6	57.6	84	52.8	0	0	---	0.00	30.136 
01:25	57.5	57.5	57.5	84	52.7	0	0	---	0.00	30.136 
01:30	57.3	57.3	57.3	84	52.5	0	0	---	0.00	30.134 
01:35	57.2	57.2	57.2	84	52.4	0	0	---	0.00	30.134 
01:40	57.0	57.0	57.0	85	52.5	0	0	---	0.00	30.134 
01:45	56.9	56.9	56.9	85	52.4	0	0	---	0.00	30.133 
01:50	56.9	56.9	56.9	85	52.4	0	0	---	0.00	30.133 
01:55	56.7	56.7	56.7	85	52.2	0	0	---	0.00	30.133 
02:00	56.6	56.6	56.6	86	52.5	0	0	---	0.00	30.135 
02:05	56.5	56.5	56.5	86	52.4	0	0	---	0.00	30.135 
02:10	56.3	56.3	56.3	86	52.2	0	0	---	0.00	30.135 
02:15	56.3	56.3	56.3	86	52.2	0	0	---	0.00	30.137 
02:20	56.2	56.2	56.2	87	52.4	0	0	---	0.00	30.137 
02:25	56.0	56.0	56.0	87	52.2	0	0	---	0.00	30.137 
02:30	55.9	55.9	55.9	87	52.1	0	0	---	0.00	30.138 
02:35	55.7	55.7	55.7	87	51.9	0	0	---	0.00	30.138 
02:40	55.6	55.6	55.6	88	52.1	0	0	---	0.00	30.138 
02:45	55.6	55.6	55.6	88	52.1	0	0	---	0.00	30.133 
02:50	55.4	55.4	55.4	88	51.9	0	0	---	0.00	30.133 
02:55	55.4	55.4	55.4	88	51.9	0	0	---	0.00	30.133 
03:00	55.3	55.3	55.3	88	51.8	0	0	---	0.00	30.136 
03:05	55.3	55.3	55.3	88	51.8	0	0	---	0.00	30.136 
03:10	55.1	55.1	55.1	89	51.9	0	0	---	0.00	30.136 
03:15	55.1	55.1	55.1	89	51.9	0	0	---	0.00	30.137 
03:20	55.0	55.0	55.0	89	51.8	0	0	---	0.00	30.137 
03:25	54.8	54.8	54.8	89	51.6	0	0	---	0.00	30.137 
03:30	54.7	54.7	54.7	89	51.5	0	0	---	0.00	30.135 
03:35	54.4	54.4	54.4	89	51.2	0	0	---	0.00	30.135 
03:40	54.4	54.4	54.4	89	51.2	0	0	---	0.00	30.135 
03:45	54.2	54.2	54.2	89	51.0	0	0	---	0.00	30.137 
03:50	54.1	54.1	54.1	90	51.2	0	0	---	0.00	30.137 
03:55	53.9	53.9	53.9	90	51.0	0	0	---	0.00	30.137 
04:00	53.8	53.8	53.8	90	50.9	0	0	---	0.00	30.139 
04:05	53.6	53.6	53.6	90	50.7	0	0	---	0.00	30.139 
04:10	53.5	53.5	53.5	90	50.6	0	0	---	0.00	30.139 
04:15	53.5	53.5	53.5	91	50.9	0	0	---	0.00	30.139 
04:20	53.3	53.3	53.3	91	50.7	0	0	---	0.00	30.139 
04:25	53.3	53.3	53.3	91	50.7	0	0	---	0.00	30.139 
04:30	53.2	53.2	53.2	91	50.6	0	0	---	0.00	30.137 
04:35	53.2	53.2	53.2	91	50.6	0	0	---	0.00	30.137 
04:40	53.2	53.2	53.2	91	50.6	0	0	---	0.00	30.137 
04:45	53.1	53.1	53.1	91	50.5	0	0	---	0.00	30.141 
04:50	52.9	52.9	52.9	92	50.6	0	0	---	0.00	30.141 
04:55	52.8	52.8	52.8	92	50.5	0	0	---	0.00	30.141 
05:00	52.8	52.8	52.8	92	50.5	0	0	---	0.00	30.141 
05:05	52.6	52.6	52.6	92	50.3	0	0	---	0.00	30.141 
05:10	52.5	52.5	52.5	92	50.2	0	0	---	0.00	30.141 
05:15	52.3	52.3	52.3	92	50.0	0	0	---	0.00	30.143 
05:20	52.2	52.2	52.2	92	49.9	0	0	---	0.00	30.143 
05:25	52.2	52.2	52.2	92	49.9	0	0	---	0.00	30.143 
05:30	52.0	52.0	52.0	92	49.7	0	0	---	0.00	30.144 
05:35	51.9	51.9	51.9	92	49.6	0	0	---	0.00	30.144 
05:40	51.7	51.7	51.7	92	49.5	0	0	---	0.00	30.144 
05:45	51.7	51.7	51.7	92	49.5	0	0	---	0.00	30.150 
05:50	51.6	51.6	51.6	92	49.4	0	0	---	0.00	30.150 
05:55	51.4	51.4	51.4	92	49.2	0	0	---	0.00	30.150 
06:00	51.4	51.4	51.4	92	49.2	0	0	---	0.00	30.156 
06:05	51.3	51.3	51.3	92	49.1	0	0	---	0.00	30.156 
06:10	51.1	51.1	51.1	93	49.1	0	0	---	0.00	30.156 
06:15	51.0	51.0	51.0	93	49.0	0	0	---	0.00	30.161 
06:20	51.0	51.0	51.0	93	49.0	0	0	---	0.00	30.161 
06:25	50.8	50.8	50.8	93	48.8	0	0	---	0.00	30.161 
06:30	50.7	50.7	50.7	93	48.7	0	0	---	0.00	30.166 
06:35	50.7	50.7	50.7	93	48.7	0	0	---	0.00	30.166 
06:40	50.5	50.5	50.5	93	48.6	0	0	---	0.00	30.166 
06:45	50.5	50.5	50.5	93	48.6	0	0	---	0.00	30.173 
06:50	50.5	50.5	50.5	93	48.6	0	0	---	0.00	30.173 
06:55	50.5	50.5	50.5	93	48.6	0	0	---	0.00	30.173 
07:00	50.4	50.4	50.4	93	48.5	0	0	---	0.00	30.175 
07:05	50.4	50.4	50.4	93	48.5	0	0	---	0.00	30.175 
07:10	50.4	50.4	50.4	93	48.5	0	0	---	0.00	30.175 
07:15	50.4	50.4	50.4	94	48.7	0	0	---	0.00	30.179 
07:20	50.4	50.4	50.4	94	48.7	0	0	---	0.00	30.179 
07:25	50.4	50.4	50.4	94	48.7	0	0	---	0.00	30.179 
07:30	50.5	50.5	50.5	94	48.8	0	0	---	0.00	30.180 
07:35	50.5	50.5	50.5	94	48.8	0	0	---	0.00	30.180 
07:40	50.5	50.5	50.5	94	48.8	0	0	---	0.00	30.180 
07:45	50.7	50.7	50.7	94	49.0	0	0	---	0.00	30.184 
07:50	50.8	50.8	50.8	94	49.1	0	0	---	0.00	30.184 
07:55	51.0	51.0	51.0	94	49.3	0	0	---	0.00	30.184 
08:00	51.3	51.3	51.3	94	49.6	0	0	---	0.00	30.191 
08:05	51.6	51.6	51.6	95	50.2	0	0	---	0.00	30.191 
08:10	52.0	52.0	52.0	95	50.6	0	0	---	0.00	30.191 
08:15	52.3	52.3	52.3	95	50.9	0	0	---	0.00	30.194 
08:20	52.8	52.8	52.8	95	51.4	0	0	---	0.00	30.194 
08:25	53.1	53.1	53.1	95	51.7	0	0	---	0.00	30.194 
08:30	53.5	53.5	53.5	95	52.1	0	0	---	0.00	30.194 
08:35	53.9	53.9	53.9	95	52.5	0	0	---	0.00	30.194 
08:40	54.2	54.2	54.2	95	52.8	0	0	---	0.00	30.194 
08:45	54.7	54.7	54.7	95	53.3	0	0	---	0.00	30.195 
08:50	55.3	55.3	55.3	95	53.9	0	0	---	0.00	30.195 
08:55	55.7	55.7	55.7	95	54.3	0	1	315	0.00	30.195 
09:00	56.3	56.3	56.3	94	54.6	0	2	315	0.00	30.193 
09:05	56.9	56.9	56.9	92	54.6	0	1	315	0.00	30.193 
09:10	57.6	57.6	57.6	89	54.4	0	1	315	0.00	30.193 
09:15	58.3	58.3	58.3	85	53.8	1	4	68	0.00	30.192 
09:20	59.0	59.0	59.0	82	53.5	1	4	90	0.00	30.192 
09:25	59.8	59.8	59.8	80	53.6	0	3	90	0.00	30.192 
09:30	60.4	60.4	60.4	78	53.5	0	2	90	0.00	30.190 
09:35	61.0	61.0	61.0	77	53.7	0	2	90	0.00	30.190 
09:40	61.6	61.6	61.6	75	53.6	1	5	68	0.00	30.190 
09:45	62.1	62.1	62.1	73	53.3	0	3	68	0.00	30.191 
09:50	62.4	62.4	62.4	72	53.2	0	3	68	0.00	30.191 
09:55	62.9	62.9	62.9	72	53.7	0	2	68	0.00	30.191 
10:00	63.2	63.2	63.2	72	54.0	0	4	68	0.00	30.195 
10:05	63.7	63.7	63.7	70	53.7	1	3	68	0.00	30.195 
10:10	64.2	64.2	64.2	68	53.4	1	4	90	0.00	30.195 
10:15	65.0	65.0	65.0	66	53.4	1	3	90	0.00	30.201 
10:20	66.0	66.0	66.0	64	53.5	1	4	90	0.00	30.201 
10:25	66.9	66.9	66.9	61	53.0	1	5	90	0.00	30.201 
10:30	67.6	67.6	67.6	60	53.2	0	3	90	0.00	30.200 
10:35	68.3	68.3	68.3	61	54.3	1	3	90	0.00	30.200 
10:40	68.8	68.8	68.8	58	53.4	1	4	90	0.00	30.200 
10:45	69.1	69.1	69.1	56	52.7	1	4	90	0.00	30.199 
10:50	69.8	69.8	69.8	56	53.4	0	2	90	0.00	30.199 
10:55	70.3	70.3	70.3	54	52.9	1	3	90	0.00	30.199 
11:00	70.8	70.8	70.8	51	51.8	1	3	90	0.00	30.197 
11:05	70.9	70.9	70.9	52	52.4	1	5	90	0.00	30.197 
11:10	70.8	70.8	70.8	51	51.8	2	6	90	0.00	30.197 
11:15	70.6	70.6	70.6	54	53.1	1	5	68	0.00	30.200 
11:20	70.9	70.9	70.9	52	52.4	0	3	68	0.00	30.200 
11:25	71.5	71.5	71.5	50	51.9	1	5	68	0.00	30.200 
11:30	71.3	71.3	71.3	51	52.2	1	5	68	0.00	30.200 
11:35	71.6	71.6	71.6	50	52.0	0	1	68	0.00	30.200 
11:40	72.1	72.1	72.1	47	50.7	1	4	68	0.00	30.200 
11:45	72.7	72.7	72.7	49	52.4	0	2	68	0.00	30.198 
11:50	73.2	73.2	73.2	45	50.6	1	3	68	0.00	30.198 
11:55	72.8	72.8	72.8	46	50.8	2	7	68	0.00	30.198 
12:00	72.7	72.7	72.7	47	51.3	0	3	90	0.00	30.199 
12:05	73.0	73.0	73.0	47	51.6	1	4	90	0.00	30.199 
12:10	73.2	73.2	73.2	47	51.7	1	5	90	0.00	30.199 
12:15	72.8	72.8	72.8	47	51.4	1	4	90	0.00	30.199 
12:20	73.2	73.2	73.2	47	51.7	2	5	90	0.00	30.199 
12:25	73.2	73.2	73.2	47	51.7	2	6	68	0.00	30.199 
12:30	73.2	73.2	73.2	43	49.3	1	3	68	0.00	30.201 
12:35	73.3	73.3	73.3	48	52.4	1	4	68	0.00	30.201 
12:40	73.9	73.9	73.9	45	51.2	0	2	68	0.00	30.201 
12:45	74.4	74.4	74.4	46	52.3	1	3	68	0.00	30.199 
12:50	74.4	74.4	74.4	45	51.7	1	3	68	0.00	30.199 
12:55	74.2	74.2	74.2	44	50.9	2	4	112	0.00	30.199 
13:00	74.4	74.4	74.4	45	51.7	0	2	112	0.00	30.197 
13:05	74.4	74.4	74.4	44	51.0	1	5	112	0.00	30.197 
13:10	74.0	74.0	74.0	45	51.3	1	3	90	0.00	30.197 
13:15	73.9	73.9	73.9	46	51.8	1	5	135	0.00	30.193 
13:20	74.0	74.0	74.0	43	50.1	1	3	90	0.00	30.193 
13:25	74.6	74.6	74.6	43	50.6	0	2	90	0.00	30.193 
13:30	74.7	74.7	74.7	46	52.5	1	3	90	0.00	30.187 
13:35	74.9	74.9	74.9	45	52.1	1	4	112	0.00	30.187 
13:40	74.9	74.9	74.9	43	50.9	1	5	68	0.00	30.187 
13:45	74.7	74.7	74.7	45	51.9	0	2	112	0.00	30.184 
13:50	74.6	74.6	74.6	43	50.6	1	4	90	0.00	30.184 
13:55	74.6	74.6	74.6	43	50.6	1	4	112	0.00	30.184 
14:00	74.4	74.4	74.4	41	49.1	1	5	90	0.00	30.185 
14:05	74.2	74.2	74.2	46	52.1	1	3	112	0.00	30.185 
14:10	74.4	74.4	74.4	41	49.1	0	2	112	0.00	30.185 
14:15	74.7	74.7	74.7	42	50.1	1	4	112	0.00	30.185 
14:20	74.6	74.6	74.6	45	51.8	2	5	90	0.00	30.185 
14:25	74.7	74.7	74.7	42	50.1	1	3	112	0.00	30.185 
14:30	75.4	75.4	77.7	42	50.7	0	2	135	0.00	30.183 
14:35	75.8	75.8	77.8	41	50.4	1	2	135	0.00	30.183 
14:40	76.3	76.3	78.0	42	51.5	0	1	135	0.00	30.183 
14:45	76.5	76.5	77.9	38	49.0	1	3	135	0.00	30.176 
14:50	76.3	76.3	77.9	39	49.5	1	3	135	0.00	30.176 
14:55	76.5	76.5	77.9	38	49.0	0	2	135	0.00	30.176 
15:00	76.7	76.7	78.1	39	49.9	1	3	135	0.00	30.169 
15:05	76.3	76.3	77.9	40	50.2	0	2	68	0.00	30.169 
15:10	76.1	76.1	77.8	39	49.3	1	3	68	0.00	30.169 
15:15	76.1	76.1	77.8	39	49.3	1	4	68	0.00	30.166 
15:20	76.0	76.0	77.7	37	47.8	0	1	68	0.00	30.166 
15:25	76.0	76.0	77.7	38	48.5	0	1	68	0.00	30.166 
15:30	76.5	76.5	78.0	39	49.7	0	2	68	0.00	30.157 
15:35	76.7	76.7	78.0	38	49.2	0	2	68	0.00	30.157 
15:40	76.8	76.8	78.1	39	49.9	0	2	68	0.00	30.157 
15:45	76.8	76.8	78.0	38	49.2	0	3	90	0.00	30.154 
15:50	77.0	77.0	78.2	39	50.1	0	3	90	0.00	30.154 
15:55	76.5	76.5	78.0	40	50.4	1	4	90	0.00	30.154 
16:00	76.0	76.0	77.7	37	47.8	1	5	90	0.00	30.153 
16:05	75.6	75.6	77.6	39	48.9	1	3	90	0.00	30.153 
16:10	75.4	75.4	77.6	40	49.4	1	5	90	0.00	30.153 
16:15	75.3	75.3	77.6	41	50.0	1	4	90	0.00	30.154 
16:20	75.1	75.1	77.5	40	49.1	1	3	112	0.00	30.154 
16:25	75.1	75.1	77.6	41	49.8	0	1	112	0.00	30.154 
16:30	75.3	75.3	77.6	41	50.0	0	1	112	0.00	30.154 
16:35	75.3	75.3	77.6	41	50.0	1	4	112	0.00	30.154 
16:40	75.1	75.1	77.5	40	49.1	0	1	90	0.00	30.154 
16:45	75.3	75.3	77.6	40	49.3	0	3	90	0.00	30.148 
16:50	75.3	75.3	77.6	41	50.0	0	2	90	0.00	30.148 
16:55	75.1	75.1	77.6	41	49.8	0	3	90	0.00	30.148 
17:00	75.3	75.3	77.6	41	50.0	0	3	90	0.00	30.143 
17:05	75.3	75.3	77.6	41	50.0	0	2	90	0.00	30.143 
17:10	75.1	75.1	77.5	40	49.1	0	1	90	0.00	30.143 
17:15	75.1	75.1	77.6	43	51.1	1	3	90	0.00	30.144 
17:20	75.1	75.1	77.6	43	51.1	1	2	90	0.00	30.144 
17:25	74.9	74.9	74.9	43	50.9	1	4	90	0.00	30.144 
17:30	74.7	74.7	74.7	43	50.7	0	1	90	0.00	30.142 
17:35	74.6	74.6	74.6	44	51.2	1	4	90	0.00	30.142 
17:40	74.6	74.6	74.6	44	51.2	0	3	90	0.00	30.142 
17:45	74.6	74.6	74.6	44	51.2	1	4	90	0.00	30.141 
17:50	74.2	74.2	74.2	43	50.2	0	2	90	0.00	30.141 
17:55	74.2	74.2	74.2	44	50.9	0	2	90	0.00	30.141 
18:00	74.2	74.2	74.2	45	51.5	0	2	90	0.00	30.141 
18:05	74.2	74.2	74.2	45	51.5	0	1	90	0.00	30.141 
18:10	74.0	74.0	74.0	45	51.3	0	1	90	0.00	30.141 
18:15	73.9	73.9	73.9	45	51.2	0	2	90	0.00	30.139 
18:20	73.7	73.7	73.7	45	51.0	0	2	135	0.00	30.139 
18:25	73.5	73.5	73.5	46	51.4	0	3	135	0.00	30.139 
18:30	73.2	73.2	73.2	46	51.2	0	2	135	0.00	30.138 
18:35	73.0	73.0	73.0	46	51.0	0	2	135	0.00	30.138 
18:40	73.0	73.0	73.0	47	51.6	0	0	---	0.00	30.138 
18:45	72.8	72.8	72.8	48	52.0	0	3	135	0.00	30.133 
18:50	72.7	72.7	72.7	48	51.9	0	1	135	0.00	30.133 
18:55	72.7	72.7	72.7	48	51.9	0	1	135	0.00	30.133 
19:00	72.5	72.5	72.5	48	51.7	0	1	135	0.00	30.130 
19:05	72.3	72.3	72.3	49	52.1	0	1	135	0.00	30.130 
19:10	72.3	72.3	72.3	49	52.1	0	1	135	0.00	30.130 
19:15	72.1	72.1	72.1	49	51.9	0	2	135	0.00	30.129 
19:20	72.0	72.0	72.0	49	51.8	0	1	135	0.00	30.129 
19:25	71.8	71.8	71.8	49	51.6	0	1	135	0.00	30.129 
19:30	71.6	71.6	71.6	50	52.0	0	0	---	0.00	30.127 
19:35	71.3	71.3	71.3	51	52.2	0	0	---	0.00	30.127 
19:40	71.1	71.1	71.1	51	52.0	0	0	---	0.00	30.127 
19:45	70.8	70.8	70.8	52	52.3	0	0	---	0.00	30.125 
19:50	70.4	70.4	70.4	53	52.4	0	0	---	0.00	30.125 
19:55	70.1	70.1	70.1	54	52.7	0	0	---	0.00	30.125 
20:00	69.8	69.8	69.8	55	52.9	0	0	---	0.00	30.120 
20:05	69.3	69.3	69.3	56	52.9	0	0	---	0.00	30.120 
20:10	68.8	68.8	68.8	58	53.4	0	0	---	0.00	30.120 
20:15	68.3	68.3	68.3	58	52.9	0	0	---	0.00	30.119 
20:20	67.9	67.9	67.9	59	53.0	0	0	---	0.00	30.119 
20:25	67.4	67.4	67.4	60	53.0	0	0	---	0.00	30.119 
20:30	66.9	66.9	66.9	61	53.0	0	0	---	0.00	30.122 
20:35	66.4	66.4	66.4	62	53.0	0	0	---	0.00	30.122 
20:40	66.0	66.0	66.0	64	53.5	0	0	---	0.00	30.122 
20:45	65.5	65.5	65.5	63	52.6	0	0	---	0.00	30.126 
20:50	65.2	65.2	65.2	65	53.1	0	0	---	0.00	30.126 
20:55	64.7	64.7	64.7	67	53.5	0	0	---	0.00	30.126 
21:00	64.3	64.3	64.3	68	53.5	0	0	---	0.00	30.129 
21:05	64.0	64.0	64.0	69	53.6	0	0	---	0.00	30.129 
21:10	63.7	63.7	63.7	70	53.7	0	0	---	0.00	30.129 
21:15	63.4	63.4	63.4	71	53.8	0	0	---	0.00	30.126 
21:20	63.2	63.2	63.2	72	54.0	0	0	---	0.00	30.126 
21:25	62.9	62.9	62.9	73	54.1	0	0	---	0.00	30.126 
21:30	62.7	62.7	62.7	74	54.3	0	0	---	0.00	30.126 
21:35	62.4	62.4	62.4	75	54.4	0	0	---	0.00	30.126 
21:40	62.1	62.1	62.1	76	54.4	0	0	---	0.00	30.126 
21:45	62.0	62.0	62.0	76	54.3	0	0	---	0.00	30.132 
21:50	61.8	61.8	61.8	77	54.5	0	0	---	0.00	30.132 
21:55	61.6	61.6	61.6	77	54.3	0	0	---	0.00	30.132 
22:00	61.3	61.3	61.3	79	54.7	0	0	---	0.00	30.137 
22:05	61.2	61.2	61.2	80	55.0	0	0	---	0.00	30.137 
22:10	61.0	61.0	61.0	81	55.1	0	0	---	0.00	30.137 
22:15	60.9	60.9	60.9	82	55.4	0	0	---	0.00	30.134 
22:20	60.7	60.7	60.7	83	55.5	0	0	---	0.00	30.134 
22:25	60.5	60.5	60.5	83	55.3	0	0	---	0.00	30.134 
22:30	60.4	60.4	60.4	84	55.5	0	0	---	0.00	30.134 
22:35	60.2	60.2	60.2	84	55.3	0	0	---	0.00	30.134 
22:40	60.1	60.1	60.1	85	55.6	0	0	---	0.00	30.134 
22:45	59.9	59.9	59.9	85	55.4	0	0	---	0.00	30.138 
22:50	59.8	59.8	59.8	85	55.3	0	0	---	0.00	30.138 
22:55	59.6	59.6	59.6	86	55.4	0	0	---	0.00	30.138 
23:00	59.5	59.5	59.5	86	55.3	0	1	135	0.00	30.142 
23:05	59.3	59.3	59.3	85	54.8	0	0	---	0.00	30.142 
23:10	59.5	59.5	59.5	84	54.7	0	0	---	0.00	30.142 
23:15	59.6	59.6	59.6	83	54.4	0	1	135	0.00	30.147 
23:20	60.1	60.1	60.1	81	54.2	0	0	---	0.00	30.147 
23:25	60.4	60.4	60.4	81	54.5	0	0	---	0.00	30.147 
23:30	60.4	60.4	60.4	81	54.5	0	0	---	0.00	30.149 
23:35	60.4	60.4	60.4	81	54.5	0	0	---	0.00	30.149 
23:40	60.4	60.4	60.4	81	54.5	0	1	135	0.00	30.149 
23:45	60.5	60.5	60.5	79	54.0	0	2	135	0.00	30.149 
23:50	60.9	60.9	60.9	78	54.0	0	1	135	0.00	30.149 
23:55	61.2	61.2	61.2	78	54.3	0	1	135	0.00	30.149 

CoCoRaHS
IN-AL-39
A2 Web Hosting
Creative Commons License
GoDaddy
search engine by freefind advanced

loaded 2018-11-15 04:12:05 • last modified 2010-11-18 10:43:29
Privacy PolicyDisclaimer
• wx.awcolley.com is powered by PmWiki v.2002016 •
• all content (unless otherwise noted) © 2018 A W Colley